sensor_id;sensor_type;location;lat;lon;timestamp;pressure;altitude;pressure_sealevel;temperature;humidity
52591;BME280;38483;42.620;25.394;2023-06-14T00:00:50;96731.38;;;21.03;76.90
52591;BME280;38483;42.620;25.394;2023-06-14T00:04:13;96721.78;;;21.02;77.33
52591;BME280;38483;42.620;25.394;2023-06-14T00:07:35;96723.59;;;21.01;77.47
52591;BME280;38483;42.620;25.394;2023-06-14T00:10:56;96729.16;;;20.89;77.84
52591;BME280;38483;42.620;25.394;2023-06-14T00:14:16;96726.66;;;20.87;77.76
52591;BME280;38483;42.620;25.394;2023-06-14T00:17:37;96738.03;;;20.78;78.69
52591;BME280;38483;42.620;25.394;2023-06-14T00:21:01;96726.69;;;20.68;79.49
52591;BME280;38483;42.620;25.394;2023-06-14T00:24:21;96728.06;;;20.53;80.90
52591;BME280;38483;42.620;25.394;2023-06-14T00:27:42;96726.56;;;20.60;80.86
52591;BME280;38483;42.620;25.394;2023-06-14T00:31:03;96724.19;;;20.57;80.46
52591;BME280;38483;42.620;25.394;2023-06-14T00:34:24;96719.34;;;20.43;80.02
52591;BME280;38483;42.620;25.394;2023-06-14T00:37:44;96714.91;;;20.34;80.23
52591;BME280;38483;42.620;25.394;2023-06-14T00:41:05;96713.94;;;20.35;80.40
52591;BME280;38483;42.620;25.394;2023-06-14T00:44:26;96719.75;;;20.29;80.27
52591;BME280;38483;42.620;25.394;2023-06-14T00:47:49;96702.97;;;20.11;81.14
52591;BME280;38483;42.620;25.394;2023-06-14T00:51:10;96703.53;;;20.24;80.56
52591;BME280;38483;42.620;25.394;2023-06-14T00:54:30;96698.84;;;20.27;80.35
52591;BME280;38483;42.620;25.394;2023-06-14T00:57:51;96697.97;;;20.17;80.69
52591;BME280;38483;42.620;25.394;2023-06-14T01:01:12;96689.66;;;20.03;81.49
52591;BME280;38483;42.620;25.394;2023-06-14T01:04:34;96699.59;;;19.99;81.66
52591;BME280;38483;42.620;25.394;2023-06-14T01:07:59;96701.25;;;19.91;81.80
52591;BME280;38483;42.620;25.394;2023-06-14T01:11:28;96700.16;;;19.93;81.86
52591;BME280;38483;42.620;25.394;2023-06-14T01:14:48;96702.91;;;19.82;81.98
52591;BME280;38483;42.620;25.394;2023-06-14T01:18:09;96703.88;;;19.81;82.20
52591;BME280;38483;42.620;25.394;2023-06-14T01:21:30;96703.56;;;19.65;82.79
52591;BME280;38483;42.620;25.394;2023-06-14T01:24:51;96695.19;;;19.51;83.19
52591;BME280;38483;42.620;25.394;2023-06-14T01:28:13;96690.66;;;19.53;83.96
52591;BME280;38483;42.620;25.394;2023-06-14T01:31:34;96694.13;;;19.32;86.44
52591;BME280;38483;42.620;25.394;2023-06-14T01:34:55;96692.16;;;19.25;87.96
52591;BME280;38483;42.620;25.394;2023-06-14T01:38:17;96695.19;;;19.20;88.56
52591;BME280;38483;42.620;25.394;2023-06-14T01:41:36;96685.44;;;19.02;88.88
52591;BME280;38483;42.620;25.394;2023-06-14T01:44:58;96690.66;;;19.22;88.71
52591;BME280;38483;42.620;25.394;2023-06-14T01:48:18;96698.22;;;19.16;88.96
52591;BME280;38483;42.620;25.394;2023-06-14T01:51:39;96698.00;;;19.28;88.15
52591;BME280;38483;42.620;25.394;2023-06-14T01:55:03;96693.28;;;19.22;88.42
52591;BME280;38483;42.620;25.394;2023-06-14T01:58:27;96699.59;;;19.40;87.86
52591;BME280;38483;42.620;25.394;2023-06-14T02:01:48;96699.00;;;19.67;86.03
52591;BME280;38483;42.620;25.394;2023-06-14T02:05:09;96695.38;;;19.59;85.57
52591;BME280;38483;42.620;25.394;2023-06-14T02:08:30;96703.41;;;19.67;84.88
52591;BME280;38483;42.620;25.394;2023-06-14T02:11:51;96699.06;;;19.46;85.62
52591;BME280;38483;42.620;25.394;2023-06-14T02:15:12;96697.22;;;19.37;85.75
52591;BME280;38483;42.620;25.394;2023-06-14T02:18:36;96695.59;;;19.46;86.34
52591;BME280;38483;42.620;25.394;2023-06-14T02:22:17;96694.81;;;19.55;85.06
52591;BME280;38483;42.620;25.394;2023-06-14T02:25:38;96696.97;;;19.40;85.71
52591;BME280;38483;42.620;25.394;2023-06-14T02:28:58;96691.88;;;19.48;85.75
52591;BME280;38483;42.620;25.394;2023-06-14T02:32:22;96690.19;;;19.47;85.87
52591;BME280;38483;42.620;25.394;2023-06-14T02:35:43;96687.78;;;19.56;84.66
52591;BME280;38483;42.620;25.394;2023-06-14T02:39:04;96692.75;;;19.68;84.33
52591;BME280;38483;42.620;25.394;2023-06-14T02:42:25;96696.53;;;19.85;82.58
52591;BME280;38483;42.620;25.394;2023-06-14T02:45:45;96683.81;;;19.80;81.92
52591;BME280;38483;42.620;25.394;2023-06-14T02:49:09;96706.50;;;19.91;82.09
52591;BME280;38483;42.620;25.394;2023-06-14T02:52:30;96711.19;;;19.78;82.57
52591;BME280;38483;42.620;25.394;2023-06-14T02:55:50;96702.63;;;19.85;82.29
52591;BME280;38483;42.620;25.394;2023-06-14T02:59:12;96708.72;;;19.86;82.17
52591;BME280;38483;42.620;25.394;2023-06-14T03:02:33;96705.13;;;19.87;82.30
52591;BME280;38483;42.620;25.394;2023-06-14T03:05:55;96691.56;;;19.82;81.59
52591;BME280;38483;42.620;25.394;2023-06-14T03:09:18;96694.03;;;19.74;82.03
52591;BME280;38483;42.620;25.394;2023-06-14T03:12:40;96712.13;;;19.67;81.98
52591;BME280;38483;42.620;25.394;2023-06-14T03:16:01;96714.28;;;19.92;80.14
52591;BME280;38483;42.620;25.394;2023-06-14T03:19:26;96713.00;;;19.87;80.65
52591;BME280;38483;42.620;25.394;2023-06-14T03:22:50;96711.66;;;20.02;79.74
52591;BME280;38483;42.620;25.394;2023-06-14T03:26:10;96722.56;;;19.97;80.36
52591;BME280;38483;42.620;25.394;2023-06-14T03:29:32;96725.19;;;19.97;80.62
52591;BME280;38483;42.620;25.394;2023-06-14T03:32:53;96726.44;;;19.93;80.58
52591;BME280;38483;42.620;25.394;2023-06-14T03:36:14;96725.88;;;19.90;80.63
52591;BME280;38483;42.620;25.394;2023-06-14T03:39:35;96724.09;;;19.90;80.70
52591;BME280;38483;42.620;25.394;2023-06-14T03:43:00;96725.94;;;20.09;80.18
52591;BME280;38483;42.620;25.394;2023-06-14T03:46:21;96728.13;;;20.13;79.98
52591;BME280;38483;42.620;25.394;2023-06-14T03:49:43;96728.69;;;20.07;79.94
52591;BME280;38483;42.620;25.394;2023-06-14T03:53:04;96722.75;;;20.15;79.42
52591;BME280;38483;42.620;25.394;2023-06-14T03:56:25;96712.28;;;20.24;79.15
52591;BME280;38483;42.620;25.394;2023-06-14T03:59:46;96728.75;;;20.36;78.06
52591;BME280;38483;42.620;25.394;2023-06-14T04:03:07;96725.41;;;20.34;78.50
52591;BME280;38483;42.620;25.394;2023-06-14T04:06:30;96737.19;;;20.49;78.52
52591;BME280;38483;42.620;25.394;2023-06-14T04:09:52;96732.63;;;20.80;77.22
52591;BME280;38483;42.620;25.394;2023-06-14T04:13:13;96742.28;;;21.18;76.21
52591;BME280;38483;42.620;25.394;2023-06-14T04:16:36;96741.34;;;21.55;74.96
52591;BME280;38483;42.620;25.394;2023-06-14T04:19:58;96738.72;;;21.92;72.83
52591;BME280;38483;42.620;25.394;2023-06-14T04:23:19;96742.06;;;21.48;73.16
52591;BME280;38483;42.620;25.394;2023-06-14T04:26:43;96749.50;;;21.16;74.19
52591;BME280;38483;42.620;25.394;2023-06-14T04:30:03;96744.09;;;21.17;74.23
52591;BME280;38483;42.620;25.394;2023-06-14T04:33:27;96740.47;;;21.28;73.23
52591;BME280;38483;42.620;25.394;2023-06-14T04:36:48;96746.09;;;21.42;72.92
52591;BME280;38483;42.620;25.394;2023-06-14T04:40:10;96757.50;;;21.33;72.41
52591;BME280;38483;42.620;25.394;2023-06-14T04:43:34;96759.75;;;21.65;71.78
52591;BME280;38483;42.620;25.394;2023-06-14T04:46:59;96765.44;;;21.70;71.64
52591;BME280;38483;42.620;25.394;2023-06-14T04:50:21;96773.91;;;21.64;72.53
52591;BME280;38483;42.620;25.394;2023-06-14T04:53:43;96769.13;;;21.40;73.51
52591;BME280;38483;42.620;25.394;2023-06-14T04:57:06;96763.22;;;21.65;73.26
52591;BME280;38483;42.620;25.394;2023-06-14T05:00:28;96771.59;;;21.51;73.35
52591;BME280;38483;42.620;25.394;2023-06-14T05:03:49;96773.56;;;21.40;73.29
52591;BME280;38483;42.620;25.394;2023-06-14T05:07:09;96783.25;;;21.49;71.79
52591;BME280;38483;42.620;25.394;2023-06-14T05:10:31;96791.28;;;21.57;72.49
52591;BME280;38483;42.620;25.394;2023-06-14T05:13:51;96783.00;;;21.79;70.72
52591;BME280;38483;42.620;25.394;2023-06-14T05:17:12;96788.16;;;21.71;68.34
52591;BME280;38483;42.620;25.394;2023-06-14T05:20:33;96801.59;;;21.87;69.38
52591;BME280;38483;42.620;25.394;2023-06-14T05:23:54;96808.81;;;21.85;68.91
52591;BME280;38483;42.620;25.394;2023-06-14T05:27:16;96796.66;;;21.65;69.08
52591;BME280;38483;42.620;25.394;2023-06-14T05:30:37;96809.31;;;21.61;69.41
52591;BME280;38483;42.620;25.394;2023-06-14T05:33:58;96810.09;;;21.71;70.08
52591;BME280;38483;42.620;25.394;2023-06-14T05:37:19;96811.22;;;21.69;70.87
52591;BME280;38483;42.620;25.394;2023-06-14T05:40:40;96809.94;;;21.73;71.47
52591;BME280;38483;42.620;25.394;2023-06-14T05:44:00;96808.13;;;21.93;70.61
52591;BME280;38483;42.620;25.394;2023-06-14T05:47:21;96814.13;;;22.12;70.61
52591;BME280;38483;42.620;25.394;2023-06-14T05:50:42;96814.66;;;22.16;70.02
52591;BME280;38483;42.620;25.394;2023-06-14T05:54:03;96820.75;;;22.16;69.63
52591;BME280;38483;42.620;25.394;2023-06-14T05:57:24;96798.97;;;22.14;66.89
52591;BME280;38483;42.620;25.394;2023-06-14T06:00:45;96832.94;;;22.44;67.56
52591;BME280;38483;42.620;25.394;2023-06-14T06:04:05;96824.59;;;22.22;68.47
52591;BME280;38483;42.620;25.394;2023-06-14T06:07:26;96830.13;;;22.28;68.62
52591;BME280;38483;42.620;25.394;2023-06-14T06:10:47;96835.50;;;22.36;66.71
52591;BME280;38483;42.620;25.394;2023-06-14T06:14:08;96835.25;;;22.57;66.58
52591;BME280;38483;42.620;25.394;2023-06-14T06:17:28;96834.63;;;22.73;65.01
52591;BME280;38483;42.620;25.394;2023-06-14T06:20:49;96840.16;;;22.52;65.62
52591;BME280;38483;42.620;25.394;2023-06-14T06:24:10;96831.50;;;22.32;65.74
52591;BME280;38483;42.620;25.394;2023-06-14T06:27:30;96828.66;;;22.43;65.38
52591;BME280;38483;42.620;25.394;2023-06-14T06:30:51;96837.03;;;22.84;64.92
52591;BME280;38483;42.620;25.394;2023-06-14T06:34:12;96843.00;;;23.03;61.78
52591;BME280;38483;42.620;25.394;2023-06-14T06:37:33;96839.66;;;23.19;60.77
52591;BME280;38483;42.620;25.394;2023-06-14T06:40:54;96846.41;;;23.13;60.60
52591;BME280;38483;42.620;25.394;2023-06-14T06:44:14;96848.13;;;23.05;61.23
52591;BME280;38483;42.620;25.394;2023-06-14T06:47:35;96847.69;;;23.09;60.69
52591;BME280;38483;42.620;25.394;2023-06-14T06:50:56;96844.50;;;23.23;60.23
52591;BME280;38483;42.620;25.394;2023-06-14T06:54:17;96843.91;;;23.47;57.98
52591;BME280;38483;42.620;25.394;2023-06-14T06:57:37;96849.19;;;22.77;61.99
52591;BME280;38483;42.620;25.394;2023-06-14T07:00:59;96850.41;;;23.00;61.05
52591;BME280;38483;42.620;25.394;2023-06-14T07:04:20;96827.59;;;22.63;61.90
52591;BME280;38483;42.620;25.394;2023-06-14T07:07:41;96851.34;;;22.36;63.27
52591;BME280;38483;42.620;25.394;2023-06-14T07:11:02;96840.84;;;22.54;63.64
52591;BME280;38483;42.620;25.394;2023-06-14T07:14:22;96849.19;;;22.77;63.42
52591;BME280;38483;42.620;25.394;2023-06-14T07:17:43;96853.63;;;22.94;62.91
52591;BME280;38483;42.620;25.394;2023-06-14T07:21:04;96858.31;;;22.82;63.91
52591;BME280;38483;42.620;25.394;2023-06-14T07:24:28;96844.00;;;22.85;63.81
52591;BME280;38483;42.620;25.394;2023-06-14T07:27:49;96853.50;;;22.95;63.65
52591;BME280;38483;42.620;25.394;2023-06-14T07:31:10;96846.09;;;22.99;63.07
52591;BME280;38483;42.620;25.394;2023-06-14T07:34:30;96857.56;;;22.90;62.80
52591;BME280;38483;42.620;25.394;2023-06-14T07:37:51;96851.59;;;22.88;63.16
52591;BME280;38483;42.620;25.394;2023-06-14T07:41:12;96854.31;;;22.60;64.49
52591;BME280;38483;42.620;25.394;2023-06-14T07:44:33;96854.03;;;22.54;64.18
52591;BME280;38483;42.620;25.394;2023-06-14T07:47:54;96826.19;;;21.78;66.49
52591;BME280;38483;42.620;25.394;2023-06-14T07:50:55;96844.13;;;22.11;66.84
52591;BME280;38483;42.620;25.394;2023-06-14T07:53:23;96838.69;;;22.13;65.19
52591;BME280;38483;42.620;25.394;2023-06-14T07:55:50;96835.75;;;22.16;64.73
52591;BME280;38483;42.620;25.394;2023-06-14T07:58:19;96843.81;;;22.14;65.40
52591;BME280;38483;42.620;25.394;2023-06-14T08:00:47;96839.97;;;22.36;65.04
52591;BME280;38483;42.620;25.394;2023-06-14T08:03:14;96852.19;;;22.64;64.94
52591;BME280;38483;42.620;25.394;2023-06-14T08:05:42;96853.31;;;22.61;63.48
52591;BME280;38483;42.620;25.394;2023-06-14T08:08:09;96825.50;;;22.85;63.13
52591;BME280;38483;42.620;25.394;2023-06-14T08:10:37;96845.22;;;22.63;64.03
52591;BME280;38483;42.620;25.394;2023-06-14T08:13:04;96855.69;;;22.82;62.87
52591;BME280;38483;42.620;25.394;2023-06-14T08:15:31;96856.06;;;22.87;63.22
52591;BME280;38483;42.620;25.394;2023-06-14T08:17:58;96859.50;;;23.23;62.10
52591;BME280;38483;42.620;25.394;2023-06-14T08:20:27;96863.50;;;23.27;62.60
52591;BME280;38483;42.620;25.394;2023-06-14T08:22:54;96860.13;;;23.17;61.83
52591;BME280;38483;42.620;25.394;2023-06-14T08:25:43;96865.66;;;23.06;62.00
52591;BME280;38483;42.620;25.394;2023-06-14T08:28:44;96864.66;;;23.07;62.38
52591;BME280;38483;42.620;25.394;2023-06-14T08:31:32;96864.13;;;23.21;61.99
52591;BME280;38483;42.620;25.394;2023-06-14T08:34:52;96742.50;;;22.87;60.98
52591;BME280;38483;42.620;25.394;2023-06-14T08:38:13;96854.63;;;23.71;60.17
52591;BME280;38483;42.620;25.394;2023-06-14T08:41:34;96849.50;;;23.70;60.42
52591;BME280;38483;42.620;25.394;2023-06-14T08:44:55;96811.22;;;23.13;61.22
52591;BME280;38483;42.620;25.394;2023-06-14T08:48:15;96857.94;;;23.48;61.47
52591;BME280;38483;42.620;25.394;2023-06-14T08:51:18;96857.97;;;23.73;59.90
52591;BME280;38483;42.620;25.394;2023-06-14T08:53:57;96860.16;;;24.03;58.81
52591;BME280;38483;42.620;25.394;2023-06-14T08:56:26;96862.53;;;24.14;58.67
52591;BME280;38483;42.620;25.394;2023-06-14T08:58:55;96864.41;;;24.30;58.74
52591;BME280;38483;42.620;25.394;2023-06-14T09:01:24;96851.25;;;24.04;59.32
52591;BME280;38483;42.620;25.394;2023-06-14T09:03:51;96856.78;;;24.01;59.82
52591;BME280;38483;42.620;25.394;2023-06-14T09:06:19;96871.03;;;24.00;59.11
52591;BME280;38483;42.620;25.394;2023-06-14T09:08:49;96871.91;;;24.43;58.72
52591;BME280;38483;42.620;25.394;2023-06-14T09:11:18;96870.66;;;24.63;57.42
52591;BME280;38483;42.620;25.394;2023-06-14T09:13:46;96876.25;;;24.93;57.22
52591;BME280;38483;42.620;25.394;2023-06-14T09:16:13;96874.28;;;24.54;58.16
52591;BME280;38483;42.620;25.394;2023-06-14T09:18:43;96859.06;;;24.56;58.20
52591;BME280;38483;42.620;25.394;2023-06-14T09:21:16;96876.97;;;24.70;58.53
52591;BME280;38483;42.620;25.394;2023-06-14T09:23:46;96873.25;;;23.87;60.77
52591;BME280;38483;42.620;25.394;2023-06-14T09:26:15;96873.59;;;23.41;62.65
52591;BME280;38483;42.620;25.394;2023-06-14T09:28:47;96869.78;;;23.26;63.34
52591;BME280;38483;42.620;25.394;2023-06-14T09:31:17;96857.09;;;23.29;63.34
52591;BME280;38483;42.620;25.394;2023-06-14T09:33:46;96871.44;;;23.27;64.52
52591;BME280;38483;42.620;25.394;2023-06-14T09:36:24;96863.38;;;23.11;63.79
52591;BME280;38483;42.620;25.394;2023-06-14T09:38:57;96866.13;;;23.36;63.56
52591;BME280;38483;42.620;25.394;2023-06-14T09:41:36;96857.22;;;23.89;62.58
52591;BME280;38483;42.620;25.394;2023-06-14T09:44:05;96851.22;;;23.53;62.56
52591;BME280;38483;42.620;25.394;2023-06-14T09:46:38;96863.97;;;23.83;62.49
52591;BME280;38483;42.620;25.394;2023-06-14T09:49:05;96866.53;;;24.01;61.87
52591;BME280;38483;42.620;25.394;2023-06-14T09:51:34;96865.28;;;23.79;62.02
52591;BME280;38483;42.620;25.394;2023-06-14T09:54:03;96861.06;;;23.94;61.77
52591;BME280;38483;42.620;25.394;2023-06-14T09:56:35;96856.56;;;23.61;63.51
52591;BME280;38483;42.620;25.394;2023-06-14T09:59:09;96835.53;;;23.34;64.43
52591;BME280;38483;42.620;25.394;2023-06-14T10:01:42;96859.81;;;23.81;63.27
52591;BME280;38483;42.620;25.394;2023-06-14T10:04:10;96817.50;;;23.81;61.96
52591;BME280;38483;42.620;25.394;2023-06-14T10:06:43;96859.28;;;24.29;60.79
52591;BME280;38483;42.620;25.394;2023-06-14T10:09:12;96857.09;;;24.58;60.71
52591;BME280;38483;42.620;25.394;2023-06-14T10:11:41;96859.38;;;24.61;60.80
52591;BME280;38483;42.620;25.394;2023-06-14T10:14:12;96854.09;;;24.11;62.05
52591;BME280;38483;42.620;25.394;2023-06-14T10:19:34;96863.34;;;23.64;64.50
52591;BME280;38483;42.620;25.394;2023-06-14T10:22:25;96844.69;;;23.65;64.72
52591;BME280;38483;42.620;25.394;2023-06-14T10:24:52;96865.53;;;23.94;66.76
52591;BME280;38483;42.620;25.394;2023-06-14T10:27:20;96865.31;;;23.87;66.52
52591;BME280;38483;42.620;25.394;2023-06-14T10:32:21;96861.66;;;23.02;68.29
52591;BME280;38483;42.620;25.394;2023-06-14T10:34:54;96857.66;;;22.98;70.72
52591;BME280;38483;42.620;25.394;2023-06-14T10:37:22;96856.94;;;23.31;68.98
52591;BME280;38483;42.620;25.394;2023-06-14T10:39:51;96868.22;;;23.51;70.72
52591;BME280;38483;42.620;25.394;2023-06-14T10:42:18;96860.66;;;23.81;69.86
52591;BME280;38483;42.620;25.394;2023-06-14T10:44:56;96861.22;;;23.67;71.89
52591;BME280;38483;42.620;25.394;2023-06-14T10:47:36;96863.09;;;24.00;72.55
52591;BME280;38483;42.620;25.394;2023-06-14T10:50:07;96865.38;;;23.95;71.56
52591;BME280;38483;42.620;25.394;2023-06-14T10:52:39;96865.56;;;24.02;72.56
52591;BME280;38483;42.620;25.394;2023-06-14T10:55:17;96862.53;;;24.14;72.08
52591;BME280;38483;42.620;25.394;2023-06-14T10:57:57;96862.56;;;23.97;72.04
52591;BME280;38483;42.620;25.394;2023-06-14T11:00:28;96867.22;;;24.03;70.86
52591;BME280;38483;42.620;25.394;2023-06-14T11:08:27;96859.19;;;23.87;72.71
52591;BME280;38483;42.620;25.394;2023-06-14T11:11:06;96864.50;;;24.12;71.28
52591;BME280;38483;42.620;25.394;2023-06-14T11:13:37;96858.25;;;24.21;69.50
52591;BME280;38483;42.620;25.394;2023-06-14T11:16:13;96844.91;;;23.72;73.41
52591;BME280;38483;42.620;25.394;2023-06-14T11:18:41;96837.78;;;23.98;73.09
52591;BME280;38483;42.620;25.394;2023-06-14T11:21:09;96855.38;;;24.49;69.58
52591;BME280;38483;42.620;25.394;2023-06-14T11:23:36;96858.72;;;24.59;67.00
52591;BME280;38483;42.620;25.394;2023-06-14T11:26:04;96857.16;;;24.74;65.70
52591;BME280;38483;42.620;25.394;2023-06-14T11:28:55;96846.25;;;24.77;65.52
52591;BME280;38483;42.620;25.394;2023-06-14T11:31:22;96845.72;;;23.72;71.50
52591;BME280;38483;42.620;25.394;2023-06-14T11:33:50;96859.84;;;23.89;70.97
52591;BME280;38483;42.620;25.394;2023-06-14T11:36:17;96851.72;;;23.82;69.78
52591;BME280;38483;42.620;25.394;2023-06-14T11:38:44;96852.41;;;24.10;68.95
52591;BME280;38483;42.620;25.394;2023-06-14T11:41:11;96863.00;;;24.44;69.47
52591;BME280;38483;42.620;25.394;2023-06-14T11:43:39;96860.06;;;24.63;70.85
52591;BME280;38483;42.620;25.394;2023-06-14T11:46:14;96825.69;;;24.21;71.46
52591;BME280;38483;42.620;25.394;2023-06-14T11:48:42;96865.34;;;24.63;70.80
52591;BME280;38483;42.620;25.394;2023-06-14T11:51:09;96859.91;;;24.64;69.08
52591;BME280;38483;42.620;25.394;2023-06-14T11:53:38;96856.59;;;24.62;70.38
52591;BME280;38483;42.620;25.394;2023-06-14T11:56:05;96857.84;;;24.42;69.33
52591;BME280;38483;42.620;25.394;2023-06-14T11:58:33;96865.97;;;24.49;67.92
52591;BME280;38483;42.620;25.394;2023-06-14T12:01:00;96859.44;;;24.69;66.84
52591;BME280;38483;42.620;25.394;2023-06-14T12:03:28;96849.47;;;24.63;65.92
52591;BME280;38483;42.620;25.394;2023-06-14T12:06:28;96848.50;;;24.64;63.41
52591;BME280;38483;42.620;25.394;2023-06-14T12:09:00;96843.91;;;24.74;64.86
52591;BME280;38483;42.620;25.394;2023-06-14T12:11:32;96843.84;;;24.66;66.86
52591;BME280;38483;42.620;25.394;2023-06-14T12:14:04;96852.75;;;24.57;68.70
52591;BME280;38483;42.620;25.394;2023-06-14T12:16:36;96833.41;;;24.48;66.42
52591;BME280;38483;42.620;25.394;2023-06-14T12:19:14;96847.75;;;24.04;68.79
52591;BME280;38483;42.620;25.394;2023-06-14T12:21:43;96833.50;;;24.39;67.72
52591;BME280;38483;42.620;25.394;2023-06-14T12:24:14;96814.28;;;24.03;66.64
52591;BME280;38483;42.620;25.394;2023-06-14T12:26:42;96833.88;;;24.44;66.09
52591;BME280;38483;42.620;25.394;2023-06-14T12:29:09;96817.13;;;25.01;64.87
52591;BME280;38483;42.620;25.394;2023-06-14T12:31:37;96826.72;;;25.02;58.77
52591;BME280;38483;42.620;25.394;2023-06-14T12:34:04;96800.56;;;25.15;59.92
52591;BME280;38483;42.620;25.394;2023-06-14T12:36:31;96820.47;;;25.43;58.12
52591;BME280;38483;42.620;25.394;2023-06-14T12:38:59;96807.66;;;24.82;60.28
52591;BME280;38483;42.620;25.394;2023-06-14T12:41:26;96814.47;;;24.93;57.99
52591;BME280;38483;42.620;25.394;2023-06-14T12:43:54;96807.19;;;25.03;56.88
52591;BME280;38483;42.620;25.394;2023-06-14T12:46:21;96804.53;;;24.79;57.05
52591;BME280;38483;42.620;25.394;2023-06-14T12:48:48;96794.78;;;25.12;58.38
52591;BME280;38483;42.620;25.394;2023-06-14T12:51:16;96790.63;;;25.25;59.49
52591;BME280;38483;42.620;25.394;2023-06-14T12:53:43;96797.09;;;25.39;59.35
52591;BME280;38483;42.620;25.394;2023-06-14T12:56:10;96791.94;;;25.61;59.24
52591;BME280;38483;42.620;25.394;2023-06-14T12:58:37;96786.19;;;25.97;58.35
52591;BME280;38483;42.620;25.394;2023-06-14T13:01:05;96784.81;;;25.54;60.05
52591;BME280;38483;42.620;25.394;2023-06-14T13:03:32;96772.00;;;25.81;58.86
52591;BME280;38483;42.620;25.394;2023-06-14T13:06:01;96797.50;;;25.99;59.15
52591;BME280;38483;42.620;25.394;2023-06-14T13:08:28;96783.13;;;25.69;58.86
52591;BME280;38483;42.620;25.394;2023-06-14T13:10:55;96782.19;;;24.97;58.12
52591;BME280;38483;42.620;25.394;2023-06-14T13:13:23;96784.00;;;24.81;59.61
52591;BME280;38483;42.620;25.394;2023-06-14T13:15:50;96760.47;;;25.10;58.62
52591;BME280;38483;42.620;25.394;2023-06-14T13:18:18;96781.69;;;25.26;57.98
52591;BME280;38483;42.620;25.394;2023-06-14T13:20:46;96769.75;;;25.38;59.04
52591;BME280;38483;42.620;25.394;2023-06-14T13:23:15;96741.91;;;25.50;58.12
52591;BME280;38483;42.620;25.394;2023-06-14T13:25:43;96761.28;;;25.59;56.86
52591;BME280;38483;42.620;25.394;2023-06-14T13:28:10;96772.66;;;25.83;57.20
52591;BME280;38483;42.620;25.394;2023-06-14T13:30:37;96768.75;;;26.10;57.16
52591;BME280;38483;42.620;25.394;2023-06-14T13:33:05;96772.00;;;25.81;57.50
52591;BME280;38483;42.620;25.394;2023-06-14T13:35:32;96768.25;;;26.07;56.61
52591;BME280;38483;42.620;25.394;2023-06-14T13:37:59;96759.41;;;26.22;56.13
52591;BME280;38483;42.620;25.394;2023-06-14T13:40:27;96763.44;;;26.10;57.31
52591;BME280;38483;42.620;25.394;2023-06-14T13:42:54;96767.75;;;26.11;56.45
52591;BME280;38483;42.620;25.394;2023-06-14T13:45:21;96757.63;;;26.15;56.33
52591;BME280;38483;42.620;25.394;2023-06-14T13:47:48;96759.97;;;26.10;56.94
52591;BME280;38483;42.620;25.394;2023-06-14T13:50:16;96756.88;;;25.90;56.71
52591;BME280;38483;42.620;25.394;2023-06-14T13:52:44;96757.03;;;25.89;55.74
52591;BME280;38483;42.620;25.394;2023-06-14T13:55:11;96758.53;;;25.83;55.38
52591;BME280;38483;42.620;25.394;2023-06-14T13:57:38;96757.31;;;26.02;54.06
52591;BME280;38483;42.620;25.394;2023-06-14T14:00:06;96763.16;;;25.89;53.59
52591;BME280;38483;42.620;25.394;2023-06-14T14:02:41;96744.00;;;25.71;53.48
52591;BME280;38483;42.620;25.394;2023-06-14T14:05:09;96702.63;;;25.30;55.68
52591;BME280;38483;42.620;25.394;2023-06-14T14:07:36;96747.13;;;25.74;55.50
52591;BME280;38483;42.620;25.394;2023-06-14T14:10:05;96740.53;;;25.62;56.37
52591;BME280;38483;42.620;25.394;2023-06-14T14:12:33;96742.31;;;25.70;56.43
52591;BME280;38483;42.620;25.394;2023-06-14T14:15:00;96749.72;;;25.91;56.87
52591;BME280;38483;42.620;25.394;2023-06-14T14:17:30;96751.34;;;26.00;57.21
52591;BME280;38483;42.620;25.394;2023-06-14T14:19:57;96729.13;;;25.93;57.46
52591;BME280;38483;42.620;25.394;2023-06-14T14:22:31;96753.53;;;26.35;56.65
52591;BME280;38483;42.620;25.394;2023-06-14T14:24:58;96741.88;;;26.44;56.36
52591;BME280;38483;42.620;25.394;2023-06-14T14:27:25;96745.25;;;26.30;56.71
52591;BME280;38483;42.620;25.394;2023-06-14T14:29:52;96754.84;;;26.39;55.83
52591;BME280;38483;42.620;25.394;2023-06-14T14:32:19;96747.94;;;26.22;56.90
52591;BME280;38483;42.620;25.394;2023-06-14T14:34:47;96755.88;;;26.30;56.34
52591;BME280;38483;42.620;25.394;2023-06-14T14:37:14;96743.78;;;26.27;56.42
52591;BME280;38483;42.620;25.394;2023-06-14T14:39:44;96741.19;;;26.11;55.80
52591;BME280;38483;42.620;25.394;2023-06-14T14:42:12;96734.19;;;25.79;56.78
52591;BME280;38483;42.620;25.394;2023-06-14T14:44:40;96735.28;;;25.30;58.28
52591;BME280;38483;42.620;25.394;2023-06-14T14:47:07;96736.56;;;25.58;57.92
52591;BME280;38483;42.620;25.394;2023-06-14T14:49:34;96733.94;;;25.34;57.25
52591;BME280;38483;42.620;25.394;2023-06-14T14:52:01;96729.09;;;25.62;56.55
52591;BME280;38483;42.620;25.394;2023-06-14T14:54:44;96729.28;;;25.52;56.49
52591;BME280;38483;42.620;25.394;2023-06-14T14:57:11;96737.91;;;25.54;56.85
52591;BME280;38483;42.620;25.394;2023-06-14T14:59:38;96731.63;;;25.23;57.88
52591;BME280;38483;42.620;25.394;2023-06-14T15:02:05;96726.97;;;25.33;57.28
52591;BME280;38483;42.620;25.394;2023-06-14T15:04:33;96716.69;;;25.54;56.94
52591;BME280;38483;42.620;25.394;2023-06-14T15:07:00;96723.31;;;25.58;57.52
52591;BME280;38483;42.620;25.394;2023-06-14T15:09:27;96725.19;;;25.89;56.84
52591;BME280;38483;42.620;25.394;2023-06-14T15:11:54;96690.84;;;25.87;56.86
52591;BME280;38483;42.620;25.394;2023-06-14T15:14:21;96719.06;;;25.88;57.16
52591;BME280;38483;42.620;25.394;2023-06-14T15:16:48;96725.97;;;25.50;57.78
52591;BME280;38483;42.620;25.394;2023-06-14T15:19:17;96727.16;;;25.32;58.62